createdAt,value
2017-07-20T00:01:19.708Z,48.34
2017-07-20T00:03:44.395Z,48.34
2017-07-20T00:06:09.068Z,48.9
2017-07-20T00:08:33.660Z,49.49
2017-07-20T00:10:58.307Z,49.68
2017-07-20T00:13:22.900Z,49.51
2017-07-20T00:15:47.662Z,48.93
2017-07-20T00:18:12.345Z,49.02
2017-07-20T00:20:28.543Z,48.17
2017-07-20T00:22:44.749Z,47.88
2017-07-20T00:25:00.927Z,48.66
2017-07-20T00:27:25.641Z,48.68
2017-07-20T00:29:18.702Z,48.56
2017-07-20T00:31:34.909Z,48.66
2017-07-20T00:33:59.687Z,48.39
2017-07-20T00:36:09.763Z,48
2017-07-20T00:38:34.456Z,47.8
2017-07-20T00:40:36.048Z,47.8
2017-07-20T00:43:00.782Z,48.1
2017-07-20T00:45:25.472Z,48.39
2017-07-20T00:47:41.685Z,49.24
2017-07-20T00:50:06.325Z,49.34
2017-07-20T00:52:22.474Z,48.95
2017-07-20T00:54:38.618Z,49.41
2017-07-20T00:56:54.794Z,49.02
2017-07-20T00:59:19.453Z,49.41
2017-07-20T01:01:44.101Z,48.66
2017-07-20T01:04:00.279Z,49.12
2017-07-20T01:06:16.547Z,48.75
2017-07-20T01:08:32.854Z,48.66
2017-07-20T01:10:40.678Z,48.46
2017-07-20T01:13:05.446Z,47.88
2017-07-20T01:15:13.274Z,48.56
2017-07-20T01:17:37.942Z,49.32
2017-07-20T01:20:02.744Z,49.12
2017-07-20T01:22:18.942Z,49.32
2017-07-20T01:24:26.735Z,49.41
2017-07-20T01:26:51.435Z,50.38
2017-07-20T01:29:07.636Z,49.9
2017-07-20T01:31:32.355Z,50.38
2017-07-20T01:33:57.134Z,49.99
2017-07-20T01:36:21.826Z,50.68
2017-07-20T01:38:46.519Z,52.98
2017-07-20T01:41:02.741Z,53.18
2017-07-20T01:43:27.519Z,53.18
2017-07-20T01:45:52.313Z,54.64
2017-07-20T01:48:08.537Z,54.25
2017-07-20T01:50:33.212Z,53.08
2017-07-20T01:52:58.006Z,54.35
2017-07-20T01:55:22.708Z,54.05
2017-07-20T01:57:47.397Z,53.96
2017-07-20T02:00:03.613Z,53.86
2017-07-20T02:02:28.293Z,53.86
2017-07-20T02:04:52.989Z,53.74
2017-07-20T02:07:17.681Z,54.03
2017-07-20T02:09:42.379Z,52.67
2017-07-20T02:12:07.078Z,53.16
2017-07-20T02:14:31.793Z,53.35
2017-07-20T02:18:23.822Z,53.35
2017-07-20T02:20:39.986Z,53.64
2017-07-20T02:23:05.449Z,53.93
2017-07-20T02:25:29.128Z,53.35
2017-07-20T02:27:53.713Z,53.83
2017-07-20T02:30:18.288Z,54.2
2017-07-20T02:32:42.889Z,54.68
2017-07-20T02:35:07.470Z,54.03
2017-07-20T02:37:32.183Z,54.58
2017-07-20T02:39:31.406Z,54.13
2017-07-20T02:41:55.961Z,54.42
2017-07-20T02:44:20.572Z,54.58
2017-07-20T02:46:45.257Z,54.52
2017-07-20T02:49:01.489Z,54.58
2017-07-20T02:51:26.158Z,54.58
2017-07-20T02:53:42.247Z,54.39
2017-07-20T02:56:06.841Z,54.29
2017-07-20T02:58:23.039Z,54.2
2017-07-20T03:00:47.630Z,54.49
2017-07-20T03:03:03.823Z,53.78
2017-07-20T03:05:28.423Z,53.22
2017-07-20T03:07:53.018Z,53.78
2017-07-20T03:10:17.611Z,53.39
2017-07-20T03:12:42.205Z,52.72
2017-07-20T03:15:06.800Z,53
2017-07-20T03:17:31.386Z,52.42
2017-07-20T03:19:55.984Z,52.13
2017-07-20T03:22:12.185Z,51.57
2017-07-20T03:24:36.683Z,50.7
2017-07-20T03:27:01.266Z,51.09
2017-07-20T03:29:17.462Z,50.51
2017-07-20T03:31:42.066Z,50.7
2017-07-20T03:34:06.701Z,50.12
2017-07-20T03:36:31.366Z,50.12
2017-07-20T03:38:32.849Z,50.04
2017-07-20T03:40:57.432Z,50.12
2017-07-20T03:43:22.004Z,50.02
2017-07-20T03:45:46.523Z,50.99
2017-07-20T03:47:56.505Z,50.99
2017-07-20T03:50:21.085Z,50.8
2017-07-20T03:52:45.644Z,50.99
2017-07-20T03:55:10.208Z,50.89
2017-07-20T03:57:34.768Z,50.51
2017-07-20T03:59:50.905Z,50.51
2017-07-20T04:02:15.497Z,50.99
2017-07-20T04:04:40.096Z,50.8
2017-07-20T04:07:04.694Z,50.7
2017-07-20T04:09:20.773Z,50.7
2017-07-20T04:11:45.308Z,50.89
2017-07-20T04:14:09.862Z,50.8
2017-07-20T04:16:34.401Z,51.77
2017-07-20T04:18:59.050Z,51.57
2017-07-20T04:21:23.579Z,50.89
2017-07-20T04:23:25.074Z,50.63
2017-07-20T04:25:49.668Z,51.87
2017-07-20T04:28:14.180Z,52.23
2017-07-20T04:30:38.725Z,51.57
2017-07-20T04:33:03.378Z,51.87
2017-07-20T04:35:27.965Z,52.42
2017-07-20T04:37:52.559Z,51.97
2017-07-20T04:40:08.653Z,52.72
2017-07-20T04:42:33.248Z,52.25
2017-07-20T04:44:57.838Z,51.84
2017-07-20T04:47:22.441Z,52.06
2017-07-20T04:49:47.038Z,51.57
2017-07-20T04:52:11.573Z,51.67
2017-07-20T04:54:27.725Z,51.57
2017-07-20T04:56:52.316Z,51.67
2017-07-20T04:59:16.912Z,51.87
2017-07-20T05:01:33.011Z,52.64
2017-07-20T05:03:57.700Z,51.7
2017-07-20T05:06:22.397Z,52.64
2017-07-20T05:08:38.591Z,54.27
2017-07-20T05:10:54.689Z,53.42
2017-07-20T05:13:19.281Z,53.59
2017-07-20T05:15:43.889Z,52.94
2017-07-20T05:18:08.471Z,53.13
2017-07-20T05:20:33.056Z,52.47
2017-07-20T05:22:57.765Z,51.89
2017-07-20T05:25:22.463Z,51.82
2017-07-20T05:27:39.606Z,51.04
2017-07-20T05:30:04.278Z,50.95
2017-07-20T05:32:28.971Z,51.04
2017-07-20T05:34:45.089Z,50.38
2017-07-20T05:37:09.702Z,50.31
2017-07-20T05:39:34.460Z,48.97
2017-07-20T05:41:59.163Z,48.41
2017-07-20T05:44:15.488Z,48.05
2017-07-20T05:46:40.281Z,42.31
2017-07-20T05:49:05.178Z,31.43
2017-07-20T05:51:15.406Z,31.41
2017-07-20T05:53:40.722Z,34.34
2017-07-20T05:56:06.038Z,36.93
2017-07-20T05:58:31.358Z,34.08
2017-07-20T06:00:56.803Z,32.56
2017-07-20T06:03:05.212Z,34.44
2017-07-20T06:05:22.235Z,35.67
2017-07-20T06:07:47.765Z,35.71
2017-07-20T06:10:04.769Z,36.07
2017-07-20T06:12:30.145Z,36.54
2017-07-20T06:14:55.551Z,35.51
2017-07-20T06:17:12.405Z,34.28
2017-07-20T06:19:37.827Z,36.16
2017-07-20T06:21:48.656Z,37.6
2017-07-20T06:23:50.329Z,38.85
2017-07-20T06:26:15.684Z,38.84
2017-07-20T06:28:40.956Z,39.61
2017-07-20T06:31:06.176Z,41.02
2017-07-20T06:33:31.476Z,37.99
2017-07-20T06:35:56.797Z,33.69
2017-07-20T06:38:22.214Z,33.49
2017-07-20T06:40:47.586Z,31.86
2017-07-20T06:43:13.047Z,25.36
2017-07-20T06:45:30.182Z,23.07
2017-07-20T06:47:55.989Z,22.94
2017-07-20T06:50:21.939Z,21.59
2017-07-20T06:52:47.991Z,24.96
2017-07-20T06:55:14.328Z,27.06
2017-07-20T06:57:32.033Z,25.91
2017-07-20T06:59:49.889Z,23.41
2017-07-20T07:02:16.530Z,22.27
2017-07-20T07:04:19.061Z,20.42
2017-07-20T07:06:45.896Z,21.39
2017-07-20T07:09:12.723Z,21.75
2017-07-20T07:11:22.351Z,24.72
2017-07-20T07:13:40.393Z,27.21
2017-07-20T07:16:06.823Z,29.61
2017-07-20T07:18:33.071Z,32.26
2017-07-20T07:20:59.108Z,34.83
2017-07-20T07:23:24.980Z,35.58
2017-07-20T07:25:50.669Z,37.23
2017-07-20T07:28:07.797Z,36.65
2017-07-20T07:30:33.334Z,37.51
2017-07-20T07:32:35.548Z,37.61
2017-07-20T07:35:00.874Z,37.59
2017-07-20T07:37:26.178Z,37.43
2017-07-20T07:39:51.474Z,35.91
2017-07-20T07:42:16.722Z,36.19
2017-07-20T07:44:42.000Z,34.47
2017-07-20T07:47:07.307Z,32.48
2017-07-20T07:49:24.176Z,32.51
2017-07-20T07:51:50.719Z,33.72
2017-07-20T07:54:16.211Z,36.11
2017-07-20T07:58:18.296Z,37.63
2017-07-20T08:00:43.665Z,38.59
2017-07-20T08:03:00.421Z,38.21
2017-07-20T08:05:17.175Z,39.45
2017-07-20T08:07:33.900Z,40.78
2017-07-20T08:10:00.611Z,41.76
2017-07-20T08:12:25.757Z,42.79
2017-07-20T08:14:50.872Z,42.77
2017-07-20T08:17:07.489Z,44.78
2017-07-20T08:19:32.479Z,45.65
2017-07-20T08:21:45.179Z,45.65
2017-07-20T08:24:10.165Z,47.97
2017-07-20T08:26:35.117Z,49.68
2017-07-20T08:29:00.014Z,49.78
2017-07-20T08:31:24.996Z,50.07
2017-07-20T08:33:49.893Z,51.19
2017-07-20T08:36:14.794Z,51.94
2017-07-20T08:38:39.718Z,52.16
2017-07-20T08:40:56.013Z,53.5
2017-07-20T08:43:20.728Z,54.08
2017-07-20T08:45:45.517Z,55.88
2017-07-20T08:48:10.209Z,57.01
2017-07-20T08:50:34.916Z,57.89
2017-07-20T08:52:59.549Z,58.93
2017-07-20T08:55:24.191Z,58.95
2017-07-20T08:57:48.773Z,60.45
2017-07-20T09:00:13.392Z,61.04
2017-07-20T09:04:13.853Z,60.28
2017-07-20T09:06:24.009Z,61.52
2017-07-20T09:08:48.650Z,63.17
2017-07-20T09:11:13.251Z,62.78
2017-07-20T09:13:37.845Z,64.78
2017-07-20T09:16:02.431Z,64.33
2017-07-20T09:20:03.332Z,65.27
2017-07-20T09:22:27.946Z,66.99
2017-07-20T09:24:52.499Z,68.12
2017-07-20T09:27:17.032Z,69.18
2017-07-20T09:29:33.085Z,71.86
2017-07-20T09:31:57.584Z,73.37
2017-07-20T09:34:22.083Z,71.8
2017-07-20T09:36:46.565Z,73.31
2017-07-20T09:39:11.061Z,73.69
2017-07-20T09:41:35.502Z,72.47
2017-07-20T09:45:27.356Z,71.06
2017-07-20T09:47:51.850Z,71.06
2017-07-20T09:50:07.833Z,71.15
2017-07-20T09:52:32.276Z,70.31
2017-07-20T09:54:56.729Z,70.99
2017-07-20T09:57:21.188Z,69.57
2017-07-20T09:59:45.688Z,69.9
2017-07-20T10:02:10.167Z,69.8
2017-07-20T10:04:34.679Z,70.39
2017-07-20T10:06:59.232Z,69.64
2017-07-20T10:09:06.866Z,68.08
2017-07-20T10:11:32.505Z,67.89
2017-07-20T10:13:57.074Z,68.51
2017-07-20T10:16:21.688Z,67.83
2017-07-20T10:18:46.288Z,67.67
2017-07-20T10:20:48.335Z,68.02
2017-07-20T10:23:04.511Z,67.93
2017-07-20T10:25:29.087Z,67.28
2017-07-20T10:27:39.695Z,65.95
2017-07-20T10:29:55.854Z,65.95
2017-07-20T10:31:57.840Z,66.79
2017-07-20T10:34:22.468Z,65.53
2017-07-20T10:36:47.120Z,64.23
2017-07-20T10:39:11.705Z,62.83
2017-07-20T10:41:36.377Z,61.96
2017-07-20T10:43:52.598Z,62.38
2017-07-20T10:47:53.790Z,62.63
2017-07-20T10:49:56.657Z,61.99
2017-07-20T10:52:21.422Z,61.43
2017-07-20T10:54:32.060Z,60.65
2017-07-20T10:56:56.853Z,61.79
2017-07-20T10:59:21.612Z,63.39
2017-07-20T11:01:46.328Z,64.91
2017-07-20T11:04:11.151Z,67.02
2017-07-20T11:06:35.848Z,69.77
2017-07-20T11:09:00.539Z,70.16
2017-07-20T11:11:25.232Z,68.57
2017-07-20T11:13:41.424Z,68.8
2017-07-20T11:16:06.129Z,68.7
2017-07-20T11:20:07.127Z,66.44
2017-07-20T11:22:31.817Z,64.94
2017-07-20T11:24:33.320Z,64.75
2017-07-20T11:26:35.360Z,65.4
2017-07-20T11:29:00.119Z,64.94
2017-07-20T11:31:24.861Z,62.7
2017-07-20T11:33:49.615Z,63.21
2017-07-20T11:36:14.430Z,63.48
2017-07-20T11:38:39.233Z,64.72
2017-07-20T11:41:04.025Z,63.61
2017-07-20T11:43:28.875Z,65.46
2017-07-20T11:45:53.717Z,63.9
2017-07-20T11:48:10.063Z,63.93
2017-07-20T11:50:26.460Z,63.74
2017-07-20T11:52:51.289Z,64.13
2017-07-20T11:55:16.084Z,63.15
2017-07-20T11:57:40.907Z,61.27
2017-07-20T11:59:42.964Z,60.71
2017-07-20T12:02:07.865Z,61.3
2017-07-20T12:04:32.774Z,60.84
2017-07-20T12:06:49.202Z,60.74
2017-07-20T12:09:14.077Z,59.25
2017-07-20T12:11:39.041Z,58.79
2017-07-20T12:14:03.944Z,59.58
2017-07-20T12:16:28.835Z,59.77
2017-07-20T12:18:45.280Z,58.76
2017-07-20T12:21:10.147Z,57.23
2017-07-20T12:23:34.998Z,57.68
2017-07-20T12:25:51.426Z,59.41
2017-07-20T12:28:07.817Z,58.66
2017-07-20T12:30:32.758Z,61.08
2017-07-20T12:32:57.605Z,60.26
2017-07-20T12:35:22.435Z,59.67
2017-07-20T12:37:47.307Z,59.38
2017-07-20T12:40:12.158Z,58.99
2017-07-20T12:42:28.529Z,58.44
2017-07-20T12:44:44.912Z,57.85
2017-07-20T12:47:09.789Z,56.61
2017-07-20T12:49:34.669Z,57.63
2017-07-20T12:51:59.560Z,56.68
2017-07-20T12:54:24.457Z,57.65
2017-07-20T12:56:35.104Z,55.32
2017-07-20T12:59:00.014Z,58.02
2017-07-20T13:01:16.397Z,57.73
2017-07-20T13:03:41.222Z,57.04
2017-07-20T13:06:06.082Z,55.22
2017-07-20T13:08:22.478Z,54.17
2017-07-20T13:10:47.343Z,53.52
2017-07-20T13:13:12.177Z,52.83
2017-07-20T13:15:37.070Z,51.66
2017-07-20T13:17:39.153Z,53.09
2017-07-20T13:19:49.317Z,53.85
2017-07-20T13:22:05.738Z,53.27
2017-07-20T13:24:30.586Z,52.97
2017-07-20T13:26:55.452Z,54.21
2017-07-20T13:29:20.295Z,53.34
2017-07-20T13:31:45.131Z,54.48
2017-07-20T13:33:38.218Z,55.26
2017-07-20T13:35:54.626Z,53.95
2017-07-20T13:38:19.419Z,54.11
2017-07-20T13:40:44.276Z,53.27
2017-07-20T13:43:09.071Z,52.8
2017-07-20T13:45:33.931Z,52.68
2017-07-20T13:47:58.780Z,52.58
2017-07-20T13:50:15.169Z,51.61
2017-07-20T13:52:39.978Z,51.07
2017-07-20T13:55:04.838Z,50
2017-07-20T13:57:29.698Z,49.9
2017-07-20T13:59:54.614Z,49.36
2017-07-20T14:02:19.655Z,48.41
2017-07-20T14:04:44.545Z,49.36
2017-07-20T14:07:00.986Z,49.33
2017-07-20T14:09:25.961Z,49.36
2017-07-20T14:11:51.015Z,48.8
2017-07-20T14:14:07.471Z,49.43
2017-07-20T14:16:32.576Z,48.85
2017-07-20T14:18:57.546Z,47.33
2017-07-20T14:21:22.585Z,47.16
2017-07-20T14:23:30.578Z,47.26
2017-07-20T14:25:55.511Z,47.72
2017-07-20T14:28:05.722Z,49.78
2017-07-20T14:30:22.227Z,49.78
2017-07-20T14:32:47.162Z,52.56
2017-07-20T14:35:12.023Z,55.72
2017-07-20T14:37:36.838Z,58.85
2017-07-20T14:40:01.606Z,60.93
2017-07-20T14:42:26.348Z,69.12
2017-07-20T14:44:42.589Z,75.94
2017-07-20T14:47:07.247Z,80.96
2017-07-20T14:49:31.918Z,80.77
2017-07-20T14:51:56.506Z,81.54
2017-07-20T14:54:21.002Z,82.14
2017-07-20T14:56:45.491Z,83.98
2017-07-20T14:59:10.079Z,85.72
2017-07-20T15:01:34.577Z,85.66
2017-07-20T15:03:50.665Z,86.09
2017-07-20T15:06:06.765Z,81.83
2017-07-20T15:08:31.265Z,80.57
2017-07-20T15:10:55.764Z,78.64
2017-07-20T15:13:20.165Z,78.34
2017-07-20T15:15:44.557Z,76.29
2017-07-20T15:18:09.012Z,75.9
2017-07-20T15:20:33.607Z,75.45
2017-07-20T15:22:58.041Z,72.97
2017-07-20T15:25:14.069Z,71.8
2017-07-20T15:27:38.692Z,71.16
2017-07-20T15:30:03.295Z,70.87
2017-07-20T15:32:27.892Z,69.51
2017-07-20T15:34:52.457Z,70.45
2017-07-20T15:37:18.145Z,70.22
2017-07-20T15:39:57.022Z,70.32
2017-07-20T15:42:23.026Z,68.7
2017-07-20T15:44:47.341Z,66.99
2017-07-20T15:47:11.958Z,66.83
2017-07-20T15:49:28.094Z,67.5
2017-07-20T15:51:52.754Z,65.85
2017-07-20T15:54:17.528Z,64.88
2017-07-20T15:56:42.187Z,66.69
2017-07-20T15:59:06.855Z,67.47
2017-07-20T16:01:31.508Z,67.99
2017-07-20T16:03:56.133Z,67.63
2017-07-20T16:06:20.747Z,68.57
2017-07-20T16:08:36.834Z,69.12
2017-07-20T16:10:52.999Z,69.25
2017-07-20T16:13:09.856Z,69.45
2017-07-20T16:15:34.481Z,69.54
2017-07-20T16:17:59.297Z,69.25
2017-07-20T16:20:15.520Z,70.06
2017-07-20T16:22:31.692Z,71.12
2017-07-20T16:24:56.288Z,70.42
2017-07-20T16:27:20.989Z,71.36
2017-07-20T16:29:45.589Z,70.61
2017-07-20T16:32:10.142Z,69.38
2017-07-20T16:34:34.703Z,70.32
2017-07-20T16:36:59.276Z,69.64
2017-07-20T16:39:23.952Z,70.97
2017-07-20T16:41:48.644Z,70.71
2017-07-20T16:44:13.255Z,70.42
2017-07-20T16:46:37.839Z,71.2
2017-07-20T16:49:02.442Z,71.1
2017-07-20T16:51:27.128Z,71.2
2017-07-20T16:53:43.248Z,70.61
2017-07-20T16:56:07.923Z,71.48
2017-07-20T16:58:32.617Z,70.71
2017-07-20T17:00:57.204Z,69.77
2017-07-20T17:03:21.805Z,68.6
2017-07-20T17:05:46.496Z,67.38
2017-07-20T17:08:11.195Z,68.54
2017-07-20T17:10:35.784Z,69.48
2017-07-20T17:13:00.334Z,69.38
2017-07-20T17:15:16.478Z,69.58
2017-07-20T17:17:41.057Z,68.9
2017-07-20T17:20:05.664Z,68.51
2017-07-20T17:22:30.241Z,67.63
2017-07-20T17:24:54.825Z,66.6
2017-07-20T17:27:19.450Z,66.96
2017-07-20T17:29:44.160Z,67.15
2017-07-20T17:32:08.778Z,67.18
2017-07-20T17:34:33.383Z,65.66
2017-07-20T17:36:58.002Z,65.46
2017-07-20T17:39:14.154Z,67.15
2017-07-20T17:41:38.839Z,67.18
2017-07-20T17:44:03.533Z,67.05
2017-07-20T17:46:28.104Z,68.12
2017-07-20T17:48:52.650Z,68.77
2017-07-20T17:51:08.800Z,69.32
2017-07-20T17:53:33.330Z,70.73
2017-07-20T17:55:43.410Z,70.29
2017-07-20T17:57:59.583Z,70.19
2017-07-20T18:00:24.073Z,69.93
2017-07-20T18:02:48.586Z,69.64
2017-07-20T18:05:04.648Z,68.51
2017-07-20T18:07:29.211Z,68.15
2017-07-20T18:09:53.762Z,68.05
2017-07-20T18:12:09.890Z,70.03
2017-07-20T18:14:34.491Z,70.29
2017-07-20T18:16:59.008Z,69.64
2017-07-20T18:19:09.074Z,69.29
2017-07-20T18:21:33.632Z,69.09
2017-07-20T18:23:58.165Z,67.73
2017-07-20T18:26:22.725Z,68.02
2017-07-20T18:28:47.219Z,70.19
2017-07-20T18:30:48.733Z,71.03
2017-07-20T18:33:13.263Z,70.09
2017-07-20T18:35:29.279Z,69.8
2017-07-20T18:37:53.844Z,69.12
2017-07-20T18:40:09.918Z,69.45
2017-07-20T18:42:17.529Z,69.15
2017-07-20T18:44:42.070Z,69.6
2017-07-20T18:46:58.148Z,70.39
2017-07-20T18:49:22.817Z,70
2017-07-20T18:51:47.408Z,68.93
2017-07-20T18:54:11.999Z,69.6
2017-07-20T18:56:36.484Z,70.15
2017-07-20T18:59:00.990Z,69.38
2017-07-20T19:01:25.486Z,70.09
2017-07-20T19:03:41.557Z,69.32
2017-07-20T19:06:06.122Z,69.7
2017-07-20T19:08:16.604Z,69.67
2017-07-20T19:10:41.152Z,70.45
2017-07-20T19:13:05.671Z,70.64
2017-07-20T19:15:30.199Z,69.41
2017-07-20T19:17:54.696Z,70.25
2017-07-20T19:20:10.738Z,70.35
2017-07-20T19:22:35.232Z,70.35
2017-07-20T19:24:59.728Z,69.51
2017-07-20T19:27:24.170Z,70.57
2017-07-20T19:29:48.670Z,70.35
2017-07-20T19:32:13.150Z,71.96
2017-07-20T19:34:37.648Z,70.83
2017-07-20T19:36:53.705Z,70.64
2017-07-20T19:39:18.188Z,70.93
2017-07-20T19:41:34.325Z,71.77
2017-07-20T19:43:50.375Z,71.58
2017-07-20T19:46:06.336Z,72.25
2017-07-20T19:48:30.753Z,72.35
2017-07-20T19:50:46.723Z,71.96
2017-07-20T19:53:11.227Z,73.32
2017-07-20T19:55:35.633Z,73.36
2017-07-20T19:58:00.113Z,72.97
2017-07-20T20:00:07.667Z,72.29
2017-07-20T20:02:32.168Z,71.8
2017-07-20T20:04:56.667Z,71.38
2017-07-20T20:07:21.154Z,71.58
2017-07-20T20:09:45.583Z,71.96
2017-07-20T20:12:10.021Z,71.48
2017-07-20T20:14:34.447Z,71.58
2017-07-20T20:16:58.874Z,72.64
2017-07-20T20:19:23.241Z,72.16
2017-07-20T20:21:39.277Z,72.45
2017-07-20T20:24:03.776Z,71.96
2017-07-20T20:26:28.215Z,72.74
2017-07-20T20:30:28.931Z,72.45
2017-07-20T20:32:53.447Z,71.96
2017-07-20T20:35:17.944Z,72.16
2017-07-20T20:37:42.307Z,72.61
2017-07-20T20:40:06.724Z,72.51
2017-07-20T20:42:31.148Z,72.89
2017-07-20T20:44:55.560Z,73.25
2017-07-20T20:47:19.922Z,72.99
2017-07-20T20:49:44.435Z,73.28
2017-07-20T20:52:08.875Z,72.61
2017-07-20T20:54:33.311Z,71.54
2017-07-20T20:56:34.792Z,71.64
2017-07-20T20:58:59.226Z,71.73
2017-07-20T21:01:23.667Z,71.64
2017-07-20T21:03:48.094Z,71.38
2017-07-20T21:06:12.521Z,71.09
2017-07-20T21:08:14.027Z,72.02
2017-07-20T21:10:38.481Z,72.51
2017-07-20T21:12:54.683Z,72.31
2017-07-20T21:15:19.289Z,72.31
2017-07-20T21:17:43.704Z,72.71
2017-07-20T21:20:08.091Z,72.99
2017-07-20T21:22:32.646Z,72.8
2017-07-20T21:24:57.045Z,73.15
2017-07-20T21:27:21.523Z,73.83
2017-07-20T21:29:45.917Z,73.93
2017-07-20T21:32:10.344Z,73.73
2017-07-20T21:34:34.713Z,73.25
2017-07-20T21:36:50.613Z,73.44
2017-07-20T21:39:15.057Z,73.93
2017-07-20T21:41:39.489Z,73.93
2017-07-20T21:44:03.907Z,75.09
2017-07-20T21:46:28.320Z,74.99
2017-07-20T21:48:52.750Z,75.87
2017-07-20T21:51:17.144Z,74.6
2017-07-20T21:53:07.133Z,74.7
2017-07-20T21:55:31.536Z,75.19
2017-07-20T21:57:47.451Z,75.09
2017-07-20T22:00:11.787Z,74.9
2017-07-20T22:02:36.170Z,75.34
2017-07-20T22:06:27.930Z,75.92
2017-07-20T22:08:52.475Z,75.73
2017-07-20T22:11:08.396Z,76.41
2017-07-20T22:13:32.736Z,75.83
2017-07-20T22:15:57.147Z,76.31
2017-07-20T22:18:21.537Z,77.05
2017-07-20T22:20:28.931Z,76.6
2017-07-20T22:22:53.272Z,76.99
2017-07-20T22:25:17.694Z,77.37
2017-07-20T22:27:33.532Z,77.44
2017-07-20T22:29:57.977Z,76.6
2017-07-20T22:32:22.292Z,77.37
2017-07-20T22:34:23.727Z,76.89
2017-07-20T22:36:48.054Z,77.57
2017-07-20T22:39:12.397Z,77.37
2017-07-20T22:41:36.729Z,76.86
2017-07-20T22:44:01.051Z,76.6
2017-07-20T22:46:08.459Z,76.99
2017-07-20T22:48:32.738Z,76.31
2017-07-20T22:50:57.133Z,76.21
2017-07-20T22:52:56.223Z,76.21
2017-07-20T22:55:20.619Z,75.63
2017-07-20T22:57:36.503Z,75.73
2017-07-20T22:59:52.447Z,75.54
2017-07-20T23:02:16.731Z,75.83
2017-07-20T23:04:41.075Z,75.89
2017-07-20T23:06:42.528Z,75.6
2017-07-20T23:09:06.912Z,75.34
2017-07-20T23:11:31.251Z,75.44
2017-07-20T23:13:55.692Z,74.57
2017-07-20T23:16:20.082Z,75.34
2017-07-20T23:18:44.455Z,75.6
2017-07-20T23:21:00.361Z,75.6
2017-07-20T23:23:16.222Z,75.83
2017-07-20T23:25:40.639Z,75.98
2017-07-20T23:28:05.032Z,76.02
2017-07-20T23:30:29.417Z,75.89
2017-07-20T23:32:53.775Z,76.08
2017-07-20T23:35:18.194Z,76.18
2017-07-20T23:37:42.589Z,76.46
2017-07-20T23:39:58.482Z,76.95
2017-07-20T23:42:22.864Z,76.21
2017-07-20T23:44:47.244Z,76.86
2017-07-20T23:47:03.131Z,76.86
2017-07-20T23:49:18.964Z,76.86
2017-07-20T23:51:43.290Z,77.24
2017-07-20T23:54:07.629Z,77.24
2017-07-20T23:56:31.965Z,76.86
2017-07-20T23:58:56.303Z,77.05
